Time;durP1;ratioP1;P1;durP2;ratioP2;P2;SDS_P1;SDS_P2;PMS_P1;PMS_P2;Temp;Humidity;BMP_temperature;BMP_pressure;BME280_temperature;BME280_humidity;BME280_pressure;Samples;Min_cycle;Max_cycle;Signal;HPM_P1;HPM_P2
2022/06/19 00:00:53;;;;;;;5.45;3.42;;;21.90;99.90;;;;;;5072744;28;20108;-70
2022/06/19 00:03:26;;;;;;;8.80;3.25;;;22.00;99.90;;;;;;5082755;28;20106;-71
2022/06/19 00:05:52;;;;;;;4.97;2.88;;;21.70;99.90;;;;;;5071674;28;20058;-70
2022/06/19 00:08:18;;;;;;;7.07;3.17;;;21.70;99.90;;;;;;5073466;28;20035;-70
2022/06/19 00:10:43;;;;;;;5.03;2.60;;;21.70;99.90;;;;;;5076985;28;20477;-70
2022/06/19 00:13:09;;;;;;;6.32;3.00;;;21.70;99.90;;;;;;5076704;28;20040;-70
2022/06/19 00:15:35;;;;;;;4.13;2.70;;;21.40;99.90;;;;;;5078566;28;20051;-70
2022/06/19 00:18:00;;;;;;;6.60;2.95;;;21.50;99.90;;;;;;5079972;28;20050;-69
2022/06/19 00:20:26;;;;;;;4.75;2.90;;;21.30;99.90;;;;;;5085305;28;20020;-70
2022/06/19 00:22:52;;;;;;;5.43;2.78;;;21.40;99.90;;;;;;5074856;28;20114;-70
2022/06/19 00:25:18;;;;;;;6.72;2.78;;;21.60;99.90;;;;;;5080934;28;20660;-70
2022/06/19 00:27:44;;;;;;;9.45;2.80;;;21.40;99.90;;;;;;5080764;28;20031;-68
2022/06/19 00:30:11;;;;;;;5.45;2.60;;;21.50;99.90;;;;;;5081006;28;20107;-70
2022/06/19 00:32:37;;;;;;;6.95;3.10;;;21.30;99.90;;;;;;5081022;28;20047;-71
2022/06/19 00:35:04;;;;;;;7.97;2.80;;;21.40;99.90;;;;;;5078157;28;20563;-70
2022/06/19 00:37:30;;;;;;;7.72;2.80;;;21.50;99.90;;;;;;5079906;28;20048;-71
2022/06/19 00:39:56;;;;;;;9.68;2.95;;;21.40;99.90;;;;;;5078021;28;20117;-70
2022/06/19 00:42:24;;;;;;;4.15;2.63;;;21.50;99.90;;;;;;5072494;28;20293;-71
2022/06/19 00:44:51;;;;;;;10.25;3.00;;;21.50;99.90;;;;;;5079517;28;20607;-70
2022/06/19 00:47:23;;;;;;;6.13;2.80;;;21.40;99.90;;;;;;5076290;28;20031;-70
2022/06/19 00:49:56;;;;;;;6.10;3.05;;;21.20;99.90;;;;;;5076970;28;20043;-71
2022/06/19 00:52:31;;;;;;;7.75;3.67;;;21.10;99.90;;;;;;5080008;28;20076;-70
2022/06/19 00:55:04;;;;;;;7.40;3.40;;;21.00;99.90;;;;;;5082504;28;20016;-70
2022/06/19 00:57:34;;;;;;;8.52;3.40;;;21.30;99.90;;;;;;5083235;28;20054;-70
2022/06/19 01:00:26;;;;;;;5.90;3.38;;;21.20;99.90;;;;;;5081270;28;20028;-70
2022/06/19 01:02:55;;;;;;;9.90;3.95;;;21.20;99.90;;;;;;5079870;28;20027;-71
2022/06/19 01:05:23;;;;;;;9.05;3.55;;;21.20;99.90;;;;;;5084908;28;20751;-71
2022/06/19 01:07:49;;;;;;;7.60;3.50;;;20.90;99.90;;;;;;5079110;28;20476;-70
2022/06/19 01:10:15;;;;;;;8.32;4.20;;;21.10;99.90;;;;;;5081167;28;20484;-70
2022/06/19 01:12:42;;;;;;;8.18;4.28;;;21.20;99.90;;;;;;5079466;28;20109;-71
2022/06/19 01:15:11;;;;;;;8.63;4.03;;;21.20;99.90;;;;;;5077596;28;20467;-71
2022/06/19 01:17:38;;;;;;;7.32;4.10;;;21.20;99.90;;;;;;5081569;28;20025;-70
2022/06/19 01:20:08;;;;;;;7.65;4.28;;;21.00;99.90;;;;;;5081411;28;20701;-71
2022/06/19 01:23:02;;;;;;;11.48;4.50;;;20.90;99.90;;;;;;5077437;28;20039;-70
2022/06/19 01:25:32;;;;;;;6.75;3.92;;;20.90;99.90;;;;;;5083601;28;20059;-70
2022/06/19 01:31:05;;;;;;;6.50;4.45;;;20.90;99.90;;;;;;5089056;28;20445;-70
2022/06/19 01:33:36;;;;;;;7.93;4.20;;;20.60;99.90;;;;;;5080826;28;20055;-70
2022/06/19 01:36:03;;;;;;;9.35;3.90;;;20.70;99.90;;;;;;5084707;28;20059;-70
2022/06/19 01:38:32;;;;;;;8.68;3.80;;;20.30;99.90;;;;;;5087928;28;20027;-70
2022/06/19 01:41:04;;;;;;;6.90;4.03;;;20.40;99.90;;;;;;5086497;28;20024;-70
2022/06/19 01:43:30;;;;;;;8.05;3.63;;;20.40;99.90;;;;;;5090120;28;20509;-70
2022/06/19 01:45:57;;;;;;;10.35;3.75;;;20.40;99.90;;;;;;5089003;28;20036;-70
2022/06/19 01:48:27;;;;;;;13.40;3.65;;;20.20;99.90;;;;;;5092388;28;20020;-70
2022/06/19 01:50:53;;;;;;;8.38;3.28;;;20.10;99.90;;;;;;5089671;28;20111;-71
2022/06/19 01:53:29;;;;;;;6.45;3.28;;;19.90;99.90;;;;;;5092216;28;20633;-71
2022/06/19 01:55:55;;;;;;;6.43;2.60;;;20.10;99.90;;;;;;5082709;28;20043;-70
2022/06/19 01:58:24;;;;;;;9.25;3.20;;;19.80;99.90;;;;;;5084962;28;20066;-70
2022/06/19 02:00:50;;;;;;;8.75;3.10;;;19.70;99.90;;;;;;5083384;28;20387;-70
2022/06/19 02:03:48;;;;;;;8.75;3.17;;;19.60;99.90;;;;;;5084907;28;20024;-70
2022/06/19 02:06:16;;;;;;;4.70;2.53;;;;;;;;;;5070043;28;20051;-69
2022/06/19 02:08:42;;;;;;;6.30;2.58;;;;;;;;;;5074382;28;20414;-70
2022/06/19 02:11:11;;;;;;;6.97;2.50;;;;;;;;;;5089205;28;20030;-70
2022/06/19 02:13:38;;;;;;;5.80;2.53;;;19.20;99.90;;;;;;5083531;28;20232;-70
2022/06/19 02:16:07;;;;;;;6.25;2.58;;;19.10;99.90;;;;;;5081240;28;20378;-70
2022/06/19 02:18:37;;;;;;;5.70;2.60;;;18.90;99.90;;;;;;5078505;28;20108;-70
2022/06/19 02:21:05;;;;;;;6.57;2.35;;;18.90;99.90;;;;;;5082757;28;20471;-71
2022/06/19 02:23:35;;;;;;;7.13;2.70;;;19.00;99.90;;;;;;5076121;28;20487;-70
2022/06/19 02:26:02;;;;;;;6.47;2.55;;;18.80;99.90;;;;;;5079927;28;20017;-71
2022/06/19 02:28:29;;;;;;;4.78;2.90;;;18.80;99.90;;;;;;5078966;28;20096;-70
2022/06/19 02:30:55;;;;;;;7.50;2.83;;;18.60;99.90;;;;;;5086100;28;20468;-71
2022/06/19 02:33:26;;;;;;;9.70;2.38;;;18.50;99.90;;;;;;5081573;28;20035;-71
2022/06/19 02:35:52;;;;;;;7.47;2.50;;;18.50;99.90;;;;;;5084949;28;20464;-70
2022/06/19 02:38:20;;;;;;;10.27;2.60;;;18.40;99.90;;;;;;5079014;28;20077;-71
2022/06/19 02:41:09;;;;;;;8.23;2.80;;;18.40;99.90;;;;;;5079038;28;20032;-70
2022/06/19 02:43:34;;;;;;;7.97;2.45;;;18.10;99.90;;;;;;5074757;28;20039;-70
2022/06/19 02:46:02;;;;;;;10.32;2.42;;;17.90;99.90;;;;;;5081696;28;20024;-69
2022/06/19 02:48:30;;;;;;;10.25;2.80;;;17.70;99.90;;;;;;5081916;28;20012;-70
2022/06/19 02:50:57;;;;;;;13.27;2.85;;;17.80;99.90;;;;;;5082998;28;20437;-71
2022/06/19 02:53:24;;;;;;;9.38;2.60;;;17.70;99.90;;;;;;5073330;28;20096;-71
2022/06/19 02:55:50;;;;;;;6.15;2.30;;;17.90;99.90;;;;;;5091917;27;20025;-71
2022/06/19 02:58:16;;;;;;;9.13;2.35;;;17.70;99.90;;;;;;5085900;28;20100;-70
2022/06/19 03:00:42;;;;;;;8.40;2.53;;;17.50;99.90;;;;;;5089510;28;20059;-70
2022/06/19 03:03:25;;;;;;;10.52;2.78;;;17.60;99.90;;;;;;5084993;28;20487;-71
2022/06/19 03:05:51;;;;;;;;;;;17.50;99.90;;;;;;5078419;28;20524;-70
2022/06/19 03:08:16;;;;;;;11.25;2.80;;;17.50;99.90;;;;;;5086805;28;19962;-71
2022/06/19 03:10:42;;;;;;;13.10;3.00;;;17.30;99.90;;;;;;5086501;28;20390;-70
2022/06/19 03:13:08;;;;;;;10.68;2.60;;;17.20;99.90;;;;;;5078816;28;20391;-71
2022/06/19 03:15:33;;;;;;;12.75;2.67;;;16.90;99.90;;;;;;5080705;28;20035;-71
2022/06/19 03:17:59;;;;;;;8.90;2.45;;;17.00;99.90;;;;;;5076106;28;20020;-71
2022/06/19 03:20:25;;;;;;;15.60;3.15;;;16.90;99.90;;;;;;5072168;28;20028;-71
2022/06/19 03:22:52;;;;;;;12.75;2.60;;;16.80;99.90;;;;;;5086326;28;20035;-71
2022/06/19 03:25:18;;;;;;;13.75;2.70;;;16.80;99.90;;;;;;5084003;28;20081;-71
2022/06/19 03:27:44;;;;;;;11.65;2.53;;;;;;;;;;5079225;28;20026;-70
2022/06/19 03:30:13;;;;;;;10.45;2.72;;;16.30;99.90;;;;;;5077951;28;20479;-70
2022/06/19 03:32:38;;;;;;;12.10;2.88;;;16.40;99.90;;;;;;5082329;28;20034;-71
2022/06/19 03:35:05;;;;;;;8.35;2.50;;;16.30;99.90;;;;;;5083360;28;20020;-70
2022/06/19 03:37:30;;;;;;;15.50;2.80;;;16.70;99.90;;;;;;5078654;28;20028;-70
2022/06/19 03:39:56;;;;;;;17.88;2.70;;;16.10;99.90;;;;;;5084557;28;20029;-71
2022/06/19 03:42:21;;;;;;;12.82;2.30;;;16.00;99.90;;;;;;5076309;28;20020;-71
2022/06/19 03:44:47;;;;;;;12.40;2.45;;;16.10;99.90;;;;;;5081782;28;20033;-72
2022/06/19 03:47:22;;;;;;;14.32;2.30;;;16.20;99.90;;;;;;5079216;28;20084;-70
2022/06/19 03:49:47;;;;;;;15.45;3.30;;;15.90;99.90;;;;;;5088724;28;20414;-71
2022/06/19 03:52:13;;;;;;;11.57;2.80;;;15.90;99.90;;;;;;5063750;28;20028;-70
2022/06/19 03:54:39;;;;;;;13.85;2.47;;;15.90;99.90;;;;;;5076047;28;20026;-70
2022/06/19 03:57:05;;;;;;;12.43;2.47;;;15.80;99.90;;;;;;5082104;28;20028;-70
2022/06/19 03:59:30;;;;;;;12.20;2.60;;;15.70;99.90;;;;;;5081798;28;20028;-71
2022/06/19 04:01:59;;;;;;;12.65;2.67;;;15.80;99.90;;;;;;5077912;28;20039;-70
2022/06/19 04:04:24;;;;;;;15.50;2.90;;;15.70;99.90;;;;;;5089451;28;20032;-71
2022/06/19 04:06:50;;;;;;;18.27;3.00;;;15.70;99.90;;;;;;5082127;28;20450;-69
2022/06/19 04:09:17;;;;;;;13.77;2.65;;;15.60;99.90;;;;;;5082445;28;20040;-70
2022/06/19 04:11:43;;;;;;;17.23;3.10;;;15.60;99.90;;;;;;5079356;28;20563;-69
2022/06/19 04:14:13;;;;;;;15.13;2.60;;;15.80;99.90;;;;;;5081143;28;20020;-70
2022/06/19 04:16:40;;;;;;;16.02;2.72;;;15.90;99.90;;;;;;5085148;28;20727;-71
2022/06/19 04:19:06;;;;;;;15.43;2.65;;;15.70;99.90;;;;;;5083170;28;20043;-70
2022/06/19 04:21:38;;;;;;;15.43;2.70;;;15.80;99.90;;;;;;5081064;28;20020;-71
2022/06/19 04:24:05;;;;;;;15.73;2.95;;;15.90;99.90;;;;;;5074852;28;20020;-71
2022/06/19 04:26:34;;;;;;;10.75;2.30;;;16.00;99.90;;;;;;5076592;28;20028;-71
2022/06/19 04:29:00;;;;;;;13.65;2.95;;;16.00;99.90;;;;;;5078391;28;20036;-71
2022/06/19 04:31:26;;;;;;;13.52;2.45;;;16.00;99.90;;;;;;5077537;28;20028;-71
2022/06/19 04:33:52;;;;;;;13.95;2.38;;;16.00;99.90;;;;;;5075473;28;20077;-70
2022/06/19 04:36:21;;;;;;;12.02;2.35;;;16.10;99.90;;;;;;5073456;28;20102;-71
2022/06/19 04:38:49;;;;;;;14.05;2.60;;;16.10;99.90;;;;;;5076044;28;20455;-71
2022/06/19 04:41:25;;;;;;;13.90;2.28;;;16.20;99.90;;;;;;5086222;28;20015;-70
2022/06/19 04:43:52;;;;;;;11.00;2.42;;;15.90;99.90;;;;;;5088578;28;20028;-70
2022/06/19 04:46:19;;;;;;;9.00;2.10;;;16.00;99.90;;;;;;5078117;28;20031;-70
2022/06/19 04:48:45;;;;;;;12.43;2.30;;;15.90;99.90;;;;;;5074697;28;20154;-71
2022/06/19 04:51:12;;;;;;;8.43;2.03;;;16.00;99.90;;;;;;5083098;28;20475;-70
2022/06/19 04:53:38;;;;;;;10.35;2.17;;;16.10;99.90;;;;;;5085044;28;20028;-71
2022/06/19 04:56:05;;;;;;;11.60;2.30;;;16.20;99.90;;;;;;5072651;28;20020;-70
2022/06/19 04:58:30;;;;;;;10.82;2.03;;;16.20;99.90;;;;;;5076351;28;20016;-70
2022/06/19 05:00:56;;;;;;;10.27;2.13;;;16.40;99.90;;;;;;5075167;28;20483;-70
2022/06/19 05:03:23;;;;;;;12.05;2.10;;;16.40;99.90;;;;;;5082197;28;20039;-71
2022/06/19 05:05:51;;;;;;;7.53;2.15;;;16.60;99.90;;;;;;5077790;28;20032;-70
2022/06/19 05:08:16;;;;;;;11.88;2.47;;;16.70;99.90;;;;;;5082991;28;20137;-70
2022/06/19 05:10:42;;;;;;;15.85;3.08;;;16.70;99.90;;;;;;5075343;28;20349;-70
2022/06/19 05:13:22;;;;;;;15.13;2.47;;;16.60;99.90;;;;;;5072793;28;20483;-71
2022/06/19 05:15:49;;;;;;;16.50;2.58;;;16.60;99.90;;;;;;5080497;28;20016;-69
2022/06/19 05:18:15;;;;;;;12.52;2.97;;;16.70;99.90;;;;;;5071736;28;20028;-70
2022/06/19 05:20:41;;;;;;;9.82;2.13;;;16.40;99.90;;;;;;5080637;28;20028;-70
2022/06/19 05:23:09;;;;;;;11.85;2.42;;;16.40;99.90;;;;;;5076513;28;20032;-69
2022/06/19 05:25:36;;;;;;;16.90;3.05;;;16.60;99.90;;;;;;5082541;28;20432;-70
2022/06/19 05:28:01;;;;;;;13.05;2.40;;;16.40;99.90;;;;;;5077025;28;20036;-70
2022/06/19 05:30:27;;;;;;;12.60;2.80;;;16.40;99.90;;;;;;5083743;28;20509;-70
2022/06/19 05:32:52;;;;;;;15.32;2.70;;;16.30;99.90;;;;;;5079268;28;20036;-71
2022/06/19 05:35:18;;;;;;;11.63;2.60;;;16.80;99.90;;;;;;5072852;28;20028;-71
2022/06/19 05:37:44;;;;;;;11.30;2.20;;;16.80;99.90;;;;;;5074407;28;20122;-70
2022/06/19 05:40:10;;;;;;;11.50;2.75;;;17.30;99.90;;;;;;5085660;28;20656;-70
2022/06/19 05:42:36;;;;;;;14.93;2.75;;;16.80;99.90;;;;;;5081789;28;20021;-70
2022/06/19 05:45:02;;;;;;;13.93;2.83;;;16.90;99.90;;;;;;5081328;28;20025;-71
2022/06/19 05:47:28;;;;;;;14.75;3.28;;;16.80;99.90;;;;;;5075585;28;20035;-70
2022/06/19 05:49:55;;;;;;;14.32;2.92;;;17.10;99.90;;;;;;5084063;28;20103;-71
2022/06/19 05:52:24;;;;;;;15.15;3.00;;;17.20;99.90;;;;;;5077939;28;20028;-71
2022/06/19 05:54:51;;;;;;;14.15;2.95;;;17.40;99.90;;;;;;5080744;28;20025;-71
2022/06/19 05:57:16;;;;;;;12.82;2.95;;;17.30;99.90;;;;;;5076028;28;20043;-70
2022/06/19 05:59:42;;;;;;;10.63;2.75;;;17.10;99.90;;;;;;5082774;28;20028;-70
2022/06/19 06:02:10;;;;;;;13.50;3.03;;;17.40;99.90;;;;;;5076320;28;20180;-71
2022/06/19 06:04:36;;;;;;;15.20;3.13;;;17.70;99.90;;;;;;5081729;28;20426;-70
2022/06/19 06:07:01;;;;;;;12.70;2.80;;;17.60;99.90;;;;;;5084078;28;20032;-71
2022/06/19 06:09:27;;;;;;;16.13;3.58;;;17.90;99.90;;;;;;5085940;28;20120;-70
2022/06/19 06:11:53;;;;;;;15.02;2.83;;;17.90;99.90;;;;;;5078311;28;20429;-71
2022/06/19 06:14:18;;;;;;;13.32;3.20;;;18.10;99.90;;;;;;5080417;28;20086;-71
2022/06/19 06:16:44;;;;;;;12.55;2.90;;;18.20;99.90;;;;;;5081261;28;20373;-72
2022/06/19 06:19:09;;;;;;;12.23;2.78;;;18.40;99.90;;;;;;5091484;28;20380;-70
2022/06/19 06:21:35;;;;;;;10.82;2.85;;;18.10;99.90;;;;;;5086820;28;20413;-70
2022/06/19 06:24:00;;;;;;;13.85;3.65;;;18.20;99.90;;;;;;5078504;28;20023;-71
2022/06/19 06:26:29;;;;;;;13.63;2.78;;;18.40;99.90;;;;;;5073424;28;20040;-71
2022/06/19 06:28:57;;;;;;;13.23;3.20;;;17.90;99.90;;;;;;5075966;28;20047;-70
2022/06/19 06:31:23;;;;;;;14.63;3.40;;;17.90;99.90;;;;;;5083134;28;20046;-71
2022/06/19 06:33:49;;;;;;;15.80;3.58;;;18.10;99.90;;;;;;5082251;28;20032;-70
2022/06/19 06:36:16;;;;;;;14.23;3.10;;;;;;;;;;5081181;28;20024;-71
2022/06/19 06:38:42;;;;;;;11.77;3.47;;;;;;;;;;5077205;28;20032;-71
2022/06/19 06:41:09;;;;;;;13.15;3.75;;;;;;;;;;5090093;28;20099;-71
2022/06/19 06:43:36;;;;;;;18.25;3.53;;;18.60;99.90;;;;;;5083710;28;20028;-71
2022/06/19 06:46:13;;;;;;;15.07;3.45;;;18.80;99.90;;;;;;5085459;28;20056;-72
2022/06/19 06:48:39;;;;;;;14.00;4.05;;;18.70;99.90;;;;;;5071591;28;20035;-70
2022/06/19 06:51:10;;;;;;;12.93;4.18;;;;;;;;;;5075963;28;20409;-70
2022/06/19 06:53:35;;;;;;;13.05;3.42;;;19.00;99.90;;;;;;5089563;28;20062;-71
2022/06/19 06:56:01;;;;;;;15.05;3.78;;;19.00;99.90;;;;;;5075586;28;20445;-71
2022/06/19 06:58:27;;;;;;;15.32;3.80;;;19.30;99.90;;;;;;5073496;28;20322;-71
2022/06/19 07:00:54;;;;;;;17.27;3.65;;;19.20;99.90;;;;;;5085300;28;20479;-71
2022/06/19 07:03:19;;;;;;;17.08;4.10;;;19.30;99.90;;;;;;5080928;28;20045;-70
2022/06/19 07:05:45;;;;;;;17.38;3.67;;;19.60;99.90;;;;;;5080935;28;20062;-70
2022/06/19 07:08:10;;;;;;;17.17;3.65;;;19.90;99.90;;;;;;5087087;28;20031;-71
2022/06/19 07:10:36;;;;;;;20.58;4.00;;;19.70;99.90;;;;;;5077635;28;20031;-70
2022/06/19 07:13:02;;;;;;;15.00;3.67;;;19.70;99.90;;;;;;5079908;28;20025;-71
2022/06/19 07:15:27;;;;;;;13.95;3.65;;;19.70;99.90;;;;;;5083367;28;20035;-70
2022/06/19 07:17:53;;;;;;;15.43;3.60;;;19.70;99.90;;;;;;5091241;28;20637;-71
2022/06/19 07:20:19;;;;;;;11.20;2.78;;;19.80;99.90;;;;;;5082757;28;20028;-70
2022/06/19 07:22:45;;;;;;;17.70;3.60;;;19.80;99.90;;;;;;5079582;28;20024;-71
2022/06/19 07:25:17;;;;;;;27.48;3.90;;;19.60;99.90;;;;;;5084677;28;20039;-72
2022/06/19 07:27:42;;;;;;;15.48;3.30;;;19.10;99.90;;;;;;5079697;28;20031;-71
2022/06/19 07:30:10;;;;;;;13.82;3.47;;;19.00;99.90;;;;;;5083397;28;20524;-71
2022/06/19 07:32:36;;;;;;;13.88;3.20;;;18.80;99.90;;;;;;5080029;28;20423;-70
2022/06/19 07:35:01;;;;;;;12.82;3.10;;;18.60;99.90;;;;;;5078594;28;20027;-70
2022/06/19 07:37:27;;;;;;;14.38;3.25;;;18.70;99.90;;;;;;5082837;28;20021;-70
2022/06/19 07:39:52;;;;;;;15.45;3.03;;;18.60;99.90;;;;;;5083710;28;20033;-70
2022/06/19 07:42:18;;;;;;;12.77;2.90;;;18.60;99.90;;;;;;5083951;28;20028;-70
2022/06/19 07:44:44;;;;;;;12.32;3.03;;;18.90;99.90;;;;;;5080704;28;20036;-71
2022/06/19 07:50:10;;;;;;;12.30;2.42;;;18.80;99.90;;;;;;5082139;28;20631;-75
2022/06/19 07:52:37;;;;;;;13.85;2.80;;;19.00;99.90;;;;;;5086243;28;20353;-74
2022/06/19 07:55:03;;;;;;;12.75;2.70;;;19.20;99.90;;;;;;5082699;28;20012;-74
2022/06/19 07:57:28;;;;;;;11.98;2.60;;;19.10;99.90;;;;;;5081697;28;20049;-74
2022/06/19 07:59:54;;;;;;;12.55;2.33;;;19.20;99.90;;;;;;5088829;28;20035;-74
2022/06/19 08:02:19;;;;;;;13.93;2.58;;;19.30;99.90;;;;;;5085823;28;20024;-75
2022/06/19 08:04:45;;;;;;;11.40;2.40;;;19.30;99.90;;;;;;5091641;28;20079;-74
2022/06/19 08:07:15;;;;;;;12.57;2.60;;;19.50;99.90;;;;;;5084299;28;20027;-74
2022/06/19 08:09:41;;;;;;;11.10;2.22;;;19.00;99.90;;;;;;5084798;28;20024;-75
2022/06/19 08:12:08;;;;;;;13.32;2.15;;;19.10;99.90;;;;;;5092165;28;20039;-75
2022/06/19 08:14:34;;;;;;;9.23;2.00;;;19.30;99.90;;;;;;5086139;28;20013;-75
2022/06/19 08:17:00;;;;;;;15.93;2.38;;;19.50;99.90;;;;;;5086733;28;20023;-75
2022/06/19 08:19:26;;;;;;;8.82;2.22;;;19.50;99.90;;;;;;5083095;28;20130;-74
2022/06/19 08:21:51;;;;;;;14.50;2.50;;;19.30;99.90;;;;;;5081140;28;20031;-75
2022/06/19 08:24:17;;;;;;;11.85;2.33;;;19.30;99.90;;;;;;5080720;28;20028;-75
2022/06/19 08:26:43;;;;;;;12.85;2.40;;;19.40;99.90;;;;;;5086302;28;20024;-75
2022/06/19 08:29:09;;;;;;;10.40;2.40;;;19.60;99.90;;;;;;5088983;28;20028;-74
2022/06/19 08:31:34;;;;;;;7.38;2.08;;;19.20;99.90;;;;;;5083674;28;20027;-74
2022/06/19 08:34:00;;;;;;;10.70;2.28;;;19.00;99.90;;;;;;5084408;28;20307;-75
2022/06/19 08:36:27;;;;;;;10.20;2.08;;;19.20;99.90;;;;;;5082946;28;20159;-75
2022/06/19 08:38:58;;;;;;;10.60;2.22;;;19.40;99.90;;;;;;5079582;28;20028;-76
2022/06/19 08:41:38;;;;;;;11.25;2.08;;;19.30;99.90;;;;;;5080856;28;20019;-74
2022/06/19 08:44:18;;;;;;;9.95;2.13;;;18.60;99.90;;;;;;5081105;28;20356;-75
2022/06/19 08:47:02;;;;;;;8.93;2.08;;;18.90;99.90;;;;;;5067826;28;20028;-75
2022/06/19 08:49:32;;;;;;;;;;;19.00;99.90;;;;;;5094971;28;20046;-74
2022/06/19 08:52:23;;;;;;;8.38;2.00;;;19.40;99.90;;;;;;5089494;28;19916;-75
2022/06/19 08:55:05;;;;;;;12.07;2.28;;;19.50;99.90;;;;;;5084339;28;20119;-74
2022/06/19 08:57:39;;;;;;;11.07;2.33;;;19.50;99.90;;;;;;5080650;28;20013;-74
2022/06/19 09:00:18;;;;;;;14.35;2.45;;;19.20;99.90;;;;;;5091561;28;20031;-75
2022/06/19 09:03:12;;;;;;;10.35;2.20;;;19.30;99.90;;;;;;5077116;28;20038;-73
2022/06/19 09:05:48;;;;;;;8.13;2.15;;;19.30;99.90;;;;;;5079853;28;20039;-71
2022/06/19 09:08:22;;;;;;;8.38;2.58;;;19.00;99.90;;;;;;5069262;28;20660;-72
2022/06/19 09:10:49;;;;;;;;;;;19.00;99.90;;;;;;5077123;28;20589;-72
2022/06/19 09:13:49;;;;;;;10.25;2.17;;;19.00;99.90;;;;;;5084135;28;19919;-71
2022/06/19 09:16:40;;;;;;;15.82;2.15;;;19.00;99.90;;;;;;5074466;28;20537;-72
2022/06/19 09:19:30;;;;;;;10.95;2.22;;;18.90;99.90;;;;;;5080740;28;20640;-71
2022/06/19 09:22:32;;;;;;;9.23;2.30;;;18.60;99.90;;;;;;5070577;28;21060;-70
2022/06/19 09:25:11;;;;;;;9.73;2.00;;;18.50;99.90;;;;;;5081644;28;20114;-71
2022/06/19 09:28:25;;;;;;;11.38;2.20;;;18.50;99.90;;;;;;5080989;28;20742;-68
2022/06/19 09:31:11;;;;;;;11.60;2.72;;;18.30;99.90;;;;;;5072577;28;20050;-69
2022/06/19 09:33:58;;;;;;;11.57;2.15;;;18.60;99.90;;;;;;5076743;28;20499;-69
2022/06/19 09:36:40;;;;;;;14.60;2.72;;;18.60;99.90;;;;;;5082678;28;20055;-69
2022/06/19 09:39:33;;;;;;;9.95;2.25;;;18.60;99.90;;;;;;5076101;28;20035;-73
2022/06/19 09:42:37;;;;;;;10.38;2.20;;;19.00;99.90;;;;;;5090417;28;20522;-70
2022/06/19 09:45:21;;;;;;;11.98;2.60;;;19.30;99.90;;;;;;5088802;28;20851;-70
2022/06/19 09:48:08;;;;;;;16.10;2.40;;;18.90;99.90;;;;;;5075348;28;20028;-71
2022/06/19 09:50:42;;;;;;;9.05;2.45;;;19.00;99.90;;;;;;5087486;28;20095;-71
2022/06/19 09:53:18;;;;;;;10.77;2.50;;;18.90;99.90;;;;;;5084308;28;20038;-71
2022/06/19 09:55:55;;;;;;;10.50;2.22;;;18.90;99.90;;;;;;5080072;28;20483;-70
2022/06/19 09:58:47;;;;;;;10.43;2.30;;;18.50;99.90;;;;;;5079052;28;20024;-70
2022/06/19 10:01:13;;;;;;;12.18;2.45;;;18.30;99.90;;;;;;5077177;28;20123;-70
2022/06/19 10:03:47;;;;;;;12.75;2.40;;;18.30;99.90;;;;;;5079873;28;20365;-74
2022/06/19 10:06:20;;;;;;;9.85;2.00;;;18.40;99.90;;;;;;5094259;28;20028;-73
2022/06/19 10:08:49;;;;;;;10.80;2.30;;;18.70;99.90;;;;;;5093172;28;20138;-75
2022/06/19 10:11:38;;;;;;;16.30;2.80;;;18.60;99.90;;;;;;5097840;28;20043;-74
2022/06/19 10:14:05;;;;;;;11.85;2.22;;;18.80;99.90;;;;;;5090015;28;20038;-74
2022/06/19 10:16:48;;;;;;;12.27;2.35;;;18.80;99.90;;;;;;5083967;28;20028;-75
2022/06/19 10:19:19;;;;;;;14.18;2.53;;;18.70;99.90;;;;;;5094190;28;20032;-76
2022/06/19 10:22:13;;;;;;;13.27;2.65;;;18.90;99.90;;;;;;5090534;28;20066;-75
2022/06/19 10:25:25;;;;;;;13.70;2.65;;;18.80;99.90;;;;;;5084346;28;20017;-74
2022/06/19 10:28:21;;;;;;;13.75;2.67;;;19.00;99.90;;;;;;5089817;28;20472;-73
2022/06/19 10:31:11;;;;;;;12.40;2.30;;;19.00;99.90;;;;;;5092323;28;20132;-74
2022/06/19 10:34:00;;;;;;;12.13;2.45;;;18.80;99.90;;;;;;5087754;28;20024;-73
2022/06/19 10:36:49;;;;;;;13.93;2.83;;;18.80;99.90;;;;;;5086063;28;20072;-74
2022/06/19 10:39:26;;;;;;;12.93;2.53;;;18.70;99.90;;;;;;5077808;28;20086;-75
2022/06/19 10:42:16;;;;;;;8.98;2.25;;;19.00;99.90;;;;;;5090673;28;20032;-76
2022/06/19 10:45:09;;;;;;;13.85;2.08;;;19.00;99.90;;;;;;5078846;28;20044;-74
2022/06/19 10:47:41;;;;;;;10.57;2.55;;;19.20;99.90;;;;;;5079904;28;20027;-74
2022/06/19 10:50:26;;;;;;;14.00;2.80;;;19.30;99.90;;;;;;5083431;28;20036;-74
2022/06/19 10:53:29;;;;;;;16.63;3.03;;;19.20;99.90;;;;;;5078876;28;20119;-73
2022/06/19 10:56:33;;;;;;;8.32;2.30;;;19.30;99.90;;;;;;5076312;28;20024;-74
2022/06/19 10:58:59;;;;;;;12.70;3.20;;;19.70;99.90;;;;;;5082721;28;20024;-73
2022/06/19 11:04:16;;;;;;;16.80;2.80;;;19.40;99.90;;;;;;5079748;28;20051;-74
2022/06/19 11:07:12;;;;;;;12.50;2.95;;;19.60;99.90;;;;;;5073868;28;20062;-74
2022/06/19 11:09:54;;;;;;;8.23;2.95;;;19.80;99.90;;;;;;5079838;28;20028;-74
2022/06/19 11:12:40;;;;;;;13.95;3.00;;;19.90;99.90;;;;;;5081892;28;20030;-74
2022/06/19 11:15:33;;;;;;;12.43;2.72;;;20.10;99.90;;;;;;5077015;28;20033;-74
2022/06/19 11:18:13;;;;;;;11.73;2.80;;;20.30;99.90;;;;;;5074897;28;20028;-74
2022/06/19 11:21:11;;;;;;;14.43;2.58;;;20.00;99.90;;;;;;5071981;28;20020;-74
2022/06/19 11:23:48;;;;;;;12.20;3.08;;;20.30;99.90;;;;;;5086862;28;20036;-74
2022/06/19 11:26:22;;;;;;;14.15;3.17;;;20.40;99.90;;;;;;5077284;28;20027;-73
2022/06/19 11:29:01;;;;;;;12.90;3.20;;;20.60;99.90;;;;;;5081158;28;20514;-73
2022/06/19 11:31:36;;;;;;;14.68;2.70;;;20.40;99.90;;;;;;5087281;28;20493;-73
2022/06/19 11:34:43;;;;;;;10.82;2.70;;;21.20;99.90;;;;;;5083573;28;20016;-72
2022/06/19 11:37:10;;;;;;;16.67;2.60;;;20.60;99.90;;;;;;5075367;28;20040;-74
2022/06/19 11:39:40;;;;;;;16.40;3.20;;;20.70;99.90;;;;;;5081229;28;20449;-73
2022/06/19 11:42:35;;;;;;;14.70;2.72;;;20.60;99.90;;;;;;5090247;28;20595;-72
2022/06/19 11:45:21;;;;;;;9.25;2.70;;;20.50;99.90;;;;;;5081108;28;20423;-73
2022/06/19 11:47:55;;;;;;;14.80;3.30;;;20.10;99.90;;;;;;5078849;28;20296;-73
2022/06/19 11:50:33;;;;;;;13.35;3.00;;;20.10;99.90;;;;;;5093100;27;20378;-71
2022/06/19 11:53:02;;;;;;;15.10;3.15;;;20.20;99.90;;;;;;5084630;28;20511;-72
2022/06/19 11:55:30;;;;;;;11.88;2.67;;;20.30;99.90;;;;;;5088002;28;20595;-73
2022/06/19 11:58:19;;;;;;;11.07;2.60;;;20.60;99.90;;;;;;5081709;28;20016;-73
2022/06/19 12:00:53;;;;;;;13.85;3.00;;;21.70;99.90;;;;;;5078726;28;20103;-73
2022/06/19 12:03:47;;;;;;;11.93;3.15;;;20.50;99.90;;;;;;5073808;28;20031;-73
2022/06/19 12:06:14;;;;;;;15.02;3.00;;;20.60;99.90;;;;;;5076093;28;20035;-72
2022/06/19 12:08:47;;;;;;;10.15;2.70;;;21.10;99.90;;;;;;5071356;28;20027;-72
2022/06/19 12:11:13;;;;;;;11.93;3.22;;;21.20;99.90;;;;;;5088201;28;20127;-73
2022/06/19 12:13:41;;;;;;;15.25;3.22;;;20.70;99.90;;;;;;5076961;28;20110;-72
2022/06/19 12:16:24;;;;;;;11.45;2.63;;;20.70;99.90;;;;;;5075597;28;20096;-73
2022/06/19 12:18:50;;;;;;;13.05;3.20;;;20.80;99.90;;;;;;5081176;28;20524;-74
2022/06/19 12:21:21;;;;;;;10.32;3.03;;;20.90;99.90;;;;;;5074918;28;20029;-72
2022/06/19 12:24:00;;;;;;;13.02;3.45;;;20.30;99.90;;;;;;5081713;28;20024;-72
2022/06/19 12:26:54;;;;;;;13.73;3.00;;;20.80;99.90;;;;;;5068449;28;20024;-73
2022/06/19 12:29:34;;;;;;;13.40;3.70;;;20.90;99.90;;;;;;5074339;28;20044;-70
2022/06/19 12:32:17;;;;;;;11.73;3.20;;;20.80;99.90;;;;;;5078664;28;20481;-70
2022/06/19 12:34:47;;;;;;;10.93;3.65;;;21.10;99.90;;;;;;5074771;28;20036;-71
2022/06/19 12:37:19;;;;;;;13.20;3.13;;;21.20;99.90;;;;;;5068991;28;20476;-70
2022/06/19 12:39:45;;;;;;;11.55;2.85;;;21.20;99.90;;;;;;5079463;28;20078;-70
2022/06/19 12:42:33;;;;;;;10.65;3.20;;;20.90;99.90;;;;;;5079281;28;20036;-71
2022/06/19 12:45:29;;;;;;;15.20;3.17;;;21.30;99.90;;;;;;5086582;28;20047;-70
2022/06/19 12:48:06;;;;;;;9.32;2.70;;;21.50;99.90;;;;;;5082142;28;20028;-69
2022/06/19 12:50:55;;;;;;;11.38;2.97;;;22.00;99.90;;;;;;5087163;28;20490;-70
2022/06/19 12:53:37;;;;;;;14.30;3.05;;;21.50;99.90;;;;;;5081884;28;20024;-71
2022/06/19 12:56:29;;;;;;;12.02;3.05;;;21.80;99.90;;;;;;5089735;28;20024;-71
2022/06/19 12:58:54;;;;;;;12.93;3.22;;;21.80;99.90;;;;;;5084851;28;20541;-71
2022/06/19 13:01:51;;;;;;;16.35;3.13;;;21.50;99.90;;;;;;5087509;28;20019;-70
2022/06/19 13:04:27;;;;;;;11.95;2.75;;;21.30;99.90;;;;;;5083147;28;20054;-70
2022/06/19 13:07:27;;;;;;;11.80;2.70;;;21.70;99.90;;;;;;5080775;28;20016;-71
2022/06/19 13:09:59;;;;;;;9.55;2.88;;;22.00;99.90;;;;;;5059948;28;20040;-71
2022/06/19 13:12:50;;;;;;;11.23;2.60;;;22.20;99.90;;;;;;5086432;28;20338;-70
2022/06/19 13:15:43;;;;;;;9.52;2.63;;;22.20;99.90;;;;;;5082560;28;20485;-74
2022/06/19 13:18:18;;;;;;;10.18;2.75;;;21.80;99.90;;;;;;5076060;28;20239;-74